Time;durP1;ratioP1;P1;durP2;ratioP2;P2;SDS_P1;SDS_P2;PMS_P1;PMS_P2;Temp;Humidity;BMP_temperature;BMP_pressure;BME280_temperature;BME280_humidity;BME280_pressure;Samples;Min_cycle;Max_cycle;Signal;HPM_P1;HPM_P2
2022/03/07 00:00:11;;;;;;;20.60;17.90;;;0.10;99.90;;;;;;5979265;24;20462;-70
2022/03/07 00:02:39;;;;;;;22.10;16.70;;;0.10;99.90;;;;;;5989154;24;20431;-70
2022/03/07 00:05:07;;;;;;;19.53;16.73;;;0.10;99.90;;;;;;5982091;23;20522;-70
2022/03/07 00:07:35;;;;;;;20.67;17.33;;;0.10;99.90;;;;;;5978808;24;20422;-70
2022/03/07 00:10:03;;;;;;;22.13;17.97;;;0.00;99.90;;;;;;5988414;24;20410;-70
2022/03/07 00:12:31;;;;;;;21.17;18.07;;;0.00;99.90;;;;;;5978887;24;20524;-69
2022/03/07 00:15:00;;;;;;;22.33;18.23;;;0.00;99.90;;;;;;5976878;23;20465;-70
2022/03/07 00:17:29;;;;;;;22.07;17.60;;;-0.10;99.90;;;;;;5987624;24;20493;-70
2022/03/07 00:19:57;;;;;;;19.80;17.70;;;-0.10;99.90;;;;;;5989193;24;20442;-70
2022/03/07 00:22:25;;;;;;;21.73;17.40;;;-0.10;99.90;;;;;;5989307;24;20434;-69
2022/03/07 00:24:53;;;;;;;19.80;16.93;;;-0.10;99.90;;;;;;5981778;23;20454;-70
2022/03/07 00:27:21;;;;;;;19.70;17.60;;;-0.20;99.90;;;;;;5989748;24;20411;-70
2022/03/07 00:29:50;;;;;;;23.67;18.43;;;-0.20;99.90;;;;;;5990158;24;20422;-70
2022/03/07 00:32:18;;;;;;;19.83;17.13;;;-0.20;99.90;;;;;;5988691;24;20407;-70
2022/03/07 00:34:48;;;;;;;21.50;18.50;;;-0.20;99.90;;;;;;5975678;23;20488;-70
2022/03/07 00:37:16;;;;;;;22.30;18.77;;;-0.20;99.90;;;;;;5988046;24;20407;-70
2022/03/07 00:39:44;;;;;;;21.50;17.27;;;-0.20;99.90;;;;;;5988242;24;20499;-70
2022/03/07 00:42:12;;;;;;;22.57;18.03;;;-0.20;99.90;;;;;;5988948;24;20477;-70
2022/03/07 00:44:40;;;;;;;21.27;18.57;;;-0.20;99.90;;;;;;5981789;23;20519;-70
2022/03/07 00:47:09;;;;;;;23.47;19.30;;;-0.20;99.90;;;;;;5989951;24;20406;-70
2022/03/07 00:49:37;;;;;;;20.77;18.60;;;-0.30;99.90;;;;;;5988937;24;20442;-70
2022/03/07 00:52:07;;;;;;;20.23;17.80;;;-0.30;99.90;;;;;;5988532;24;20445;-70
2022/03/07 00:54:35;;;;;;;23.00;19.60;;;-0.30;99.90;;;;;;5966264;23;20493;-70
2022/03/07 00:57:03;;;;;;;22.30;18.00;;;-0.30;99.90;;;;;;5963248;24;20457;-70
2022/03/07 00:59:31;;;;;;;24.53;18.60;;;-0.30;99.90;;;;;;5979092;24;20498;-70
2022/03/07 01:01:59;;;;;;;19.23;17.20;;;-0.30;99.90;;;;;;5979329;24;20438;-70
2022/03/07 01:04:27;;;;;;;22.07;17.20;;;-0.30;99.90;;;;;;5977811;23;20458;-70
2022/03/07 01:06:55;;;;;;;20.40;18.20;;;-0.30;99.90;;;;;;5987216;24;20479;-70
2022/03/07 01:09:24;;;;;;;20.50;18.00;;;-0.30;99.90;;;;;;5977650;24;20526;-70
2022/03/07 01:11:52;;;;;;;21.40;17.97;;;-0.40;99.90;;;;;;5988055;24;20407;-70
2022/03/07 01:14:20;;;;;;;22.87;18.77;;;-0.40;99.90;;;;;;5970508;23;20454;-70
2022/03/07 01:16:48;;;;;;;21.87;19.03;;;-0.40;99.90;;;;;;5971600;24;20806;-70
2022/03/07 01:19:19;;;;;;;22.50;18.50;;;-0.40;99.90;;;;;;5988268;24;20418;-70
2022/03/07 01:21:46;;;;;;;21.27;18.47;;;-0.40;99.90;;;;;;5978369;24;20952;-70
2022/03/07 01:24:14;;;;;;;22.70;19.63;;;-0.40;99.90;;;;;;5976354;23;20454;-70
2022/03/07 01:26:45;;;;;;;24.70;19.07;;;-0.40;99.90;;;;;;5978112;24;20411;-70
2022/03/07 01:29:13;;;;;;;25.30;18.00;;;-0.50;99.90;;;;;;5987622;24;20423;-70
2022/03/07 01:31:41;;;;;;;21.30;17.77;;;-0.50;99.90;;;;;;5987360;24;20415;-70
2022/03/07 01:34:09;;;;;;;23.73;18.70;;;-0.50;99.90;;;;;;5984418;23;20473;-69
2022/03/07 01:36:37;;;;;;;21.97;18.50;;;-0.60;99.90;;;;;;5985829;24;20414;-70
2022/03/07 01:39:05;;;;;;;20.50;18.00;;;-0.60;99.90;;;;;;5978085;24;20758;-70
2022/03/07 01:41:33;;;;;;;22.53;19.60;;;-0.60;99.90;;;;;;5978736;24;20506;-70
2022/03/07 01:44:02;;;;;;;22.70;19.13;;;-0.60;99.90;;;;;;5978943;23;20534;-69
2022/03/07 01:46:31;;;;;;;23.83;18.63;;;-0.60;99.90;;;;;;5976990;24;20509;-70
2022/03/07 01:48:59;;;;;;;21.80;19.30;;;-0.60;99.90;;;;;;5988238;24;20418;-70
2022/03/07 01:51:28;;;;;;;23.67;18.87;;;-0.60;99.90;;;;;;5987628;24;20414;-70
2022/03/07 01:53:55;;;;;;;27.30;20.97;;;-0.60;99.90;;;;;;5977959;23;20535;-70
2022/03/07 01:56:23;;;;;;;24.87;19.37;;;-0.70;99.90;;;;;;5988086;24;20462;-70
2022/03/07 01:58:51;;;;;;;24.73;19.43;;;-0.70;99.90;;;;;;5987745;24;20462;-70
2022/03/07 02:01:20;;;;;;;25.70;20.43;;;-0.70;99.90;;;;;;5986335;24;20444;-70
2022/03/07 02:03:48;;;;;;;23.37;19.83;;;-0.70;99.90;;;;;;5985995;23;20525;-69
2022/03/07 02:06:16;;;;;;;22.40;19.03;;;-0.80;99.90;;;;;;5977342;24;20430;-70
2022/03/07 02:08:45;;;;;;;24.23;19.37;;;-0.80;99.90;;;;;;5988226;24;20403;-70
2022/03/07 02:11:14;;;;;;;23.50;18.87;;;-0.80;99.90;;;;;;5962499;24;20821;-70
2022/03/07 02:13:42;;;;;;;20.83;18.20;;;-0.80;99.90;;;;;;5974756;23;20940;-70
2022/03/07 02:16:12;;;;;;;22.80;19.80;;;-0.90;99.90;;;;;;5987892;24;20443;-70
2022/03/07 02:18:42;;;;;;;23.33;19.80;;;-0.90;99.90;;;;;;5988727;24;20414;-70
2022/03/07 02:21:11;;;;;;;24.70;19.73;;;-0.90;99.90;;;;;;5985700;24;20663;-70
2022/03/07 02:23:40;;;;;;;23.80;19.30;;;-0.90;99.90;;;;;;5986610;23;20434;-69
2022/03/07 02:26:10;;;;;;;24.20;20.80;;;-0.90;99.90;;;;;;5987686;24;20467;-70
2022/03/07 02:28:39;;;;;;;24.03;19.73;;;-0.90;99.90;;;;;;5982998;24;20742;-70
2022/03/07 02:31:08;;;;;;;24.67;19.53;;;-0.90;99.90;;;;;;5973889;24;20486;-70
2022/03/07 02:33:37;;;;;;;24.93;19.37;;;-1.00;99.90;;;;;;5987295;23;20461;-69
2022/03/07 02:36:05;;;;;;;26.73;19.13;;;-0.90;99.90;;;;;;5987960;24;20778;-70
2022/03/07 02:38:34;;;;;;;23.13;20.10;;;-0.90;99.90;;;;;;5986453;24;20411;-70
2022/03/07 02:41:03;;;;;;;25.70;19.93;;;-0.90;99.90;;;;;;5988234;24;20484;-70
2022/03/07 02:43:31;;;;;;;26.37;19.97;;;-1.00;99.90;;;;;;5977048;23;20533;-68
2022/03/07 02:45:59;;;;;;;24.53;19.70;;;-1.00;99.90;;;;;;5987380;24;20418;-70
2022/03/07 02:48:34;;;;;;;26.77;19.77;;;-1.00;99.90;;;;;;5973078;24;20438;-70
2022/03/07 02:51:04;;;;;;;22.93;19.20;;;-1.00;99.90;;;;;;5988565;24;20493;-70
2022/03/07 02:53:31;;;;;;;24.00;18.47;;;-1.00;99.90;;;;;;5978965;23;20439;-68
2022/03/07 02:55:59;;;;;;;25.10;19.50;;;-1.00;99.90;;;;;;5986471;24;20474;-70
2022/03/07 02:58:28;;;;;;;23.70;19.40;;;-1.00;99.90;;;;;;5987839;24;20420;-70
2022/03/07 03:00:57;;;;;;;27.03;19.30;;;-1.10;99.90;;;;;;5988318;24;20452;-70
2022/03/07 03:03:25;;;;;;;22.90;19.03;;;-1.10;99.90;;;;;;5987961;24;20670;-70
2022/03/07 03:05:54;;;;;;;22.03;18.80;;;-1.10;99.90;;;;;;5980718;23;20795;-70
2022/03/07 03:08:22;;;;;;;22.80;19.07;;;-1.00;99.90;;;;;;5990870;24;20462;-71
2022/03/07 03:10:50;;;;;;;23.87;19.50;;;-1.10;99.90;;;;;;5989900;24;20483;-70
2022/03/07 03:13:20;;;;;;;23.47;19.07;;;-1.10;99.90;;;;;;5983180;24;20430;-71
2022/03/07 03:15:50;;;;;;;23.60;18.40;;;-1.10;99.90;;;;;;5980810;23;20489;-71
2022/03/07 03:18:18;;;;;;;24.53;18.93;;;-1.10;99.90;;;;;;5983608;24;20413;-71
2022/03/07 03:20:49;;;;;;;27.30;18.63;;;-1.20;99.90;;;;;;5987907;24;20419;-71
2022/03/07 03:23:18;;;;;;;23.17;17.97;;;-1.20;99.90;;;;;;5980572;24;20488;-71
2022/03/07 03:25:46;;;;;;;21.67;18.77;;;-1.20;99.90;;;;;;5980540;23;20450;-71
2022/03/07 03:28:14;;;;;;;23.83;18.53;;;-1.20;99.90;;;;;;5987489;24;20475;-71
2022/03/07 03:30:42;;;;;;;22.63;19.40;;;-1.20;99.90;;;;;;5980255;24;20431;-71
2022/03/07 03:33:12;;;;;;;23.37;18.10;;;-1.20;99.90;;;;;;5989554;24;20446;-71
2022/03/07 03:35:40;;;;;;;24.60;18.20;;;-1.20;99.90;;;;;;5979707;23;20454;-71
2022/03/07 03:38:09;;;;;;;20.53;17.70;;;-1.20;99.90;;;;;;5980169;24;20426;-71
2022/03/07 03:40:37;;;;;;;22.90;18.60;;;-1.20;99.90;;;;;;5989082;24;20425;-71
2022/03/07 03:43:05;;;;;;;23.47;18.30;;;-1.30;99.90;;;;;;5989648;24;20454;-71
2022/03/07 03:45:33;;;;;;;23.87;18.33;;;-1.30;99.90;;;;;;5975345;23;20514;-71
2022/03/07 03:48:01;;;;;;;23.47;18.67;;;-1.30;99.90;;;;;;5990436;24;20415;-71
2022/03/07 03:50:30;;;;;;;24.93;18.20;;;-1.40;99.90;;;;;;5988202;24;20455;-71
2022/03/07 03:52:58;;;;;;;23.37;18.30;;;-1.30;99.90;;;;;;5980755;24;20781;-71
2022/03/07 03:55:26;;;;;;;21.37;17.30;;;-1.30;99.90;;;;;;5981673;23;20453;-71
2022/03/07 03:57:54;;;;;;;24.23;17.63;;;-1.30;99.90;;;;;;5989860;24;20415;-71
2022/03/07 04:00:23;;;;;;;21.50;17.97;;;-1.40;99.90;;;;;;5988038;24;20451;-71
2022/03/07 04:02:52;;;;;;;24.87;18.90;;;-1.40;99.90;;;;;;5980203;24;20445;-71
2022/03/07 04:05:20;;;;;;;25.10;19.10;;;-1.40;99.90;;;;;;5981930;23;20458;-71
2022/03/07 04:07:49;;;;;;;20.33;17.50;;;-1.40;99.90;;;;;;5983695;24;20418;-71
2022/03/07 04:10:17;;;;;;;23.20;19.03;;;-1.40;99.90;;;;;;5989382;24;20415;-71
2022/03/07 04:12:45;;;;;;;22.50;17.60;;;-1.40;99.90;;;;;;5979188;24;20509;-71
2022/03/07 04:15:13;;;;;;;22.70;18.30;;;-1.40;99.90;;;;;;5975775;23;20552;-71
2022/03/07 04:17:42;;;;;;;20.40;17.53;;;-1.40;99.90;;;;;;5989905;24;20414;-71
2022/03/07 04:20:13;;;;;;;23.57;18.77;;;-1.40;99.90;;;;;;5989036;24;20419;-71
2022/03/07 04:22:43;;;;;;;21.97;17.80;;;-1.40;99.90;;;;;;5986085;24;20549;-71
2022/03/07 04:25:12;;;;;;;21.63;18.00;;;-1.50;99.90;;;;;;5977274;23;20515;-71
2022/03/07 04:27:40;;;;;;;23.77;18.50;;;-1.50;99.90;;;;;;5989832;24;20411;-72
2022/03/07 04:30:09;;;;;;;21.60;17.30;;;-1.50;99.90;;;;;;5989002;24;20501;-71
2022/03/07 04:32:38;;;;;;;21.73;18.10;;;-1.50;99.90;;;;;;5989077;24;20422;-71
2022/03/07 04:35:08;;;;;;;24.43;18.87;;;-1.50;99.90;;;;;;5981584;23;20796;-71
2022/03/07 04:37:39;;;;;;;21.70;18.00;;;-1.50;99.90;;;;;;5988831;24;20422;-71
2022/03/07 04:40:09;;;;;;;21.43;17.93;;;-1.50;99.90;;;;;;5963989;24;20422;-71
2022/03/07 04:42:38;;;;;;;24.50;17.90;;;-1.50;99.90;;;;;;5974630;24;20967;-71
2022/03/07 04:45:07;;;;;;;22.50;17.40;;;-1.50;99.90;;;;;;5969431;23;20890;-71
2022/03/07 04:47:35;;;;;;;20.60;17.47;;;-1.50;99.90;;;;;;5990688;24;20425;-71
2022/03/07 04:50:04;;;;;;;20.03;16.77;;;-1.50;99.90;;;;;;5988876;24;20453;-71
2022/03/07 04:52:32;;;;;;;22.37;17.80;;;-1.50;99.90;;;;;;5980697;24;20438;-71
2022/03/07 04:54:59;;;;;;;21.80;17.80;;;-1.60;99.90;;;;;;5974041;23;20451;-71
2022/03/07 04:57:27;;;;;;;23.17;17.43;;;-1.60;99.90;;;;;;5980426;24;20414;-71
2022/03/07 04:59:57;;;;;;;23.20;18.50;;;-1.60;99.90;;;;;;5987916;24;20418;-71
2022/03/07 05:02:24;;;;;;;21.87;17.50;;;-1.60;99.90;;;;;;5989124;24;20439;-72
2022/03/07 05:04:53;;;;;;;21.90;16.73;;;-1.60;99.90;;;;;;5983472;23;20465;-71
2022/03/07 05:07:22;;;;;;;21.33;16.60;;;-1.60;99.90;;;;;;5989951;24;20410;-72
2022/03/07 05:09:49;;;;;;;21.03;17.07;;;-1.60;99.90;;;;;;5981373;24;20446;-71
2022/03/07 05:12:17;;;;;;;23.97;18.27;;;-1.60;99.90;;;;;;5988779;24;20415;-71
2022/03/07 05:14:45;;;;;;;19.07;16.27;;;-1.60;99.90;;;;;;5983881;23;20454;-71
2022/03/07 05:17:14;;;;;;;23.93;17.87;;;-1.70;99.90;;;;;;5988542;24;20411;-72
2022/03/07 05:19:43;;;;;;;23.33;16.87;;;-1.70;99.90;;;;;;5987721;24;20419;-71
2022/03/07 05:22:11;;;;;;;21.73;17.00;;;-1.70;99.90;;;;;;5987980;24;20414;-71
2022/03/07 05:24:39;;;;;;;21.77;16.83;;;-1.70;99.90;;;;;;5983891;23;20469;-71
2022/03/07 05:27:09;;;;;;;22.23;17.30;;;-1.70;99.90;;;;;;5987151;24;20422;-71
2022/03/07 05:29:37;;;;;;;21.70;17.53;;;-1.70;99.90;;;;;;5978753;24;20896;-71
2022/03/07 05:32:06;;;;;;;23.10;17.40;;;-1.70;99.90;;;;;;5988406;24;20421;-71
2022/03/07 05:34:36;;;;;;;19.97;16.53;;;-1.70;99.90;;;;;;5978550;23;20538;-71
2022/03/07 05:37:04;;;;;;;19.43;17.03;;;-1.70;99.90;;;;;;5987770;24;20418;-71
2022/03/07 05:39:32;;;;;;;21.20;16.70;;;-1.70;99.90;;;;;;5979271;24;20810;-71
2022/03/07 05:42:00;;;;;;;18.67;16.50;;;-1.70;99.90;;;;;;5987775;24;20439;-71
2022/03/07 05:44:28;;;;;;;22.33;17.97;;;-1.70;99.90;;;;;;5978913;23;20489;-71
2022/03/07 05:46:56;;;;;;;20.90;17.37;;;-1.80;99.90;;;;;;5946344;24;20906;-71
2022/03/07 05:49:24;;;;;;;22.30;16.67;;;-1.80;99.90;;;;;;5989634;24;20414;-71
2022/03/07 05:51:53;;;;;;;21.57;17.30;;;-1.80;99.90;;;;;;5980190;24;20813;-71
2022/03/07 05:54:21;;;;;;;22.73;17.03;;;-1.80;99.90;;;;;;5984723;23;20466;-71
2022/03/07 05:56:49;;;;;;;20.13;16.87;;;-1.70;99.90;;;;;;5978649;24;20458;-71
2022/03/07 05:59:17;;;;;;;20.67;16.67;;;-1.70;99.90;;;;;;5952518;24;20442;-71
2022/03/07 06:01:45;;;;;;;20.37;16.13;;;-1.70;99.90;;;;;;5987841;24;20421;-71
2022/03/07 06:04:12;;;;;;;20.27;16.60;;;-1.70;99.90;;;;;;5973704;23;20454;-71
2022/03/07 06:06:40;;;;;;;21.00;16.57;;;-1.60;99.90;;;;;;5987375;24;20497;-70
2022/03/07 06:09:09;;;;;;;19.77;16.30;;;-1.60;99.90;;;;;;5982904;24;20508;-71
2022/03/07 06:11:38;;;;;;;22.10;17.10;;;-1.60;99.90;;;;;;5975814;24;20933;-72
2022/03/07 06:14:05;;;;;;;22.17;18.00;;;-1.50;99.90;;;;;;5996371;23;20446;-72
2022/03/07 06:16:33;;;;;;;21.27;16.57;;;-1.50;99.90;;;;;;6009750;24;20454;-71
2022/03/07 06:19:01;;;;;;;22.40;17.10;;;-1.40;99.90;;;;;;5999162;24;20426;-72
2022/03/07 06:21:29;;;;;;;17.43;15.63;;;-1.40;99.90;;;;;;5982932;24;20438;-71
2022/03/07 06:24:04;;;;;;;22.03;16.53;;;-1.40;99.90;;;;;;5984190;23;20504;-72
2022/03/07 06:26:35;;;;;;;17.93;15.30;;;-1.50;99.90;;;;;;5975470;24;20469;-71
2022/03/07 06:29:05;;;;;;;18.67;16.10;;;-1.50;99.90;;;;;;5985355;24;20508;-71
2022/03/07 06:31:33;;;;;;;19.60;15.57;;;-1.60;99.90;;;;;;5973539;24;20469;-71
2022/03/07 06:34:02;;;;;;;21.60;17.10;;;-1.60;99.90;;;;;;5974022;23;20450;-71
2022/03/07 06:36:30;;;;;;;23.57;16.37;;;-1.50;99.90;;;;;;5986624;24;20466;-71
2022/03/07 06:38:59;;;;;;;19.10;16.10;;;-1.50;99.90;;;;;;5986249;24;20427;-71
2022/03/07 06:41:26;;;;;;;22.53;16.13;;;-1.40;99.90;;;;;;5988270;24;20497;-71
2022/03/07 06:44:00;;;;;;;21.47;17.17;;;-1.40;99.90;;;;;;5974587;23;20469;-70
2022/03/07 06:46:29;;;;;;;20.53;16.30;;;-1.40;99.90;;;;;;5955170;24;20438;-71
2022/03/07 06:48:57;;;;;;;19.43;15.97;;;-1.40;99.90;;;;;;5987963;24;20421;-71
2022/03/07 06:51:24;;;;;;;21.60;17.53;;;-1.40;99.90;;;;;;5965828;24;20533;-70
2022/03/07 06:53:52;;;;;;;20.13;16.37;;;-1.30;99.90;;;;;;5974249;23;20690;-71
2022/03/07 06:56:20;;;;;;;22.33;18.03;;;-1.30;99.90;;;;;;5986152;24;20458;-71
2022/03/07 06:58:48;;;;;;;19.40;17.20;;;-1.20;99.90;;;;;;5987845;24;20421;-71
2022/03/07 07:01:18;;;;;;;22.73;17.90;;;-1.20;99.90;;;;;;5985198;24;20425;-71
2022/03/07 07:03:46;;;;;;;24.00;17.83;;;-1.20;99.90;;;;;;5978730;23;20439;-71
2022/03/07 07:06:14;;;;;;;21.10;17.17;;;-1.20;99.90;;;;;;5980037;24;20482;-71
2022/03/07 07:08:42;;;;;;;23.43;18.43;;;-1.10;99.90;;;;;;5984889;24;20421;-71
2022/03/07 07:11:10;;;;;;;22.23;18.57;;;-1.10;99.90;;;;;;5986000;24;20418;-70
2022/03/07 07:13:40;;;;;;;24.80;18.57;;;-1.00;99.90;;;;;;5975724;23;20529;-70
2022/03/07 07:16:08;;;;;;;22.00;18.00;;;-1.00;99.90;;;;;;5971405;24;20430;-72
2022/03/07 07:18:37;;;;;;;21.70;17.67;;;-0.90;99.90;;;;;;5974305;24;20434;-70
2022/03/07 07:21:06;;;;;;;19.70;17.60;;;-0.90;99.90;;;;;;5986249;24;20425;-70
2022/03/07 07:23:34;;;;;;;19.80;16.50;;;-0.80;99.90;;;;;;5984589;23;20427;-70
2022/03/07 07:26:02;;;;;;;21.90;17.60;;;-0.80;99.90;;;;;;5977403;24;20422;-70
2022/03/07 07:28:30;;;;;;;19.90;16.93;;;-0.70;99.90;;;;;;5987436;24;20419;-71
2022/03/07 07:30:59;;;;;;;20.27;17.83;;;-0.60;99.90;;;;;;5986816;24;20422;-70
2022/03/07 07:33:26;;;;;;;21.03;17.97;;;-0.60;99.90;;;;;;5983651;24;20446;-71
2022/03/07 07:35:56;;;;;;;19.83;17.00;;;-0.50;99.90;;;;;;5973891;23;20450;-70
2022/03/07 07:38:24;;;;;;;20.77;17.77;;;-0.50;99.90;;;;;;5987151;24;20452;-69
2022/03/07 07:40:54;;;;;;;20.53;17.60;;;-0.40;99.90;;;;;;5984741;24;20425;-69
2022/03/07 07:43:22;;;;;;;21.73;18.93;;;-0.30;99.90;;;;;;5975804;24;20441;-69
2022/03/07 07:45:50;;;;;;;22.13;19.73;;;-0.30;99.90;;;;;;5974555;23;20549;-68
2022/03/07 07:48:18;;;;;;;21.67;18.50;;;-0.20;99.90;;;;;;5987312;24;20467;-69
2022/03/07 07:50:46;;;;;;;19.60;17.20;;;-0.10;99.90;;;;;;5985752;24;20429;-69
2022/03/07 07:53:15;;;;;;;21.73;17.60;;;-0.10;99.90;;;;;;5966887;24;20450;-69
2022/03/07 07:55:43;;;;;;;23.77;18.80;;;0.00;99.90;;;;;;5973832;23;20454;-69
2022/03/07 07:58:11;;;;;;;21.03;18.70;;;0.10;99.90;;;;;;5984071;24;20414;-69
2022/03/07 08:00:39;;;;;;;20.20;18.10;;;0.20;99.90;;;;;;5974099;24;20430;-69
2022/03/07 08:03:08;;;;;;;20.03;17.37;;;0.30;99.90;;;;;;5976392;24;20922;-69
2022/03/07 08:05:36;;;;;;;20.70;17.60;;;0.40;99.90;;;;;;5978058;23;20472;-69
2022/03/07 08:08:05;;;;;;;18.50;16.57;;;0.50;99.90;;;;;;5985958;24;20415;-69
2022/03/07 08:10:35;;;;;;;20.43;17.50;;;0.50;99.90;;;;;;5977476;24;20423;-68
2022/03/07 08:13:03;;;;;;;18.80;16.63;;;0.60;99.90;;;;;;5975697;24;20481;-69
2022/03/07 08:15:31;;;;;;;19.57;17.43;;;0.70;99.90;;;;;;5961828;23;20477;-69
2022/03/07 08:17:59;;;;;;;19.83;17.73;;;0.70;99.90;;;;;;5985379;24;20414;-69
2022/03/07 08:20:27;;;;;;;20.50;17.77;;;0.80;99.90;;;;;;5984143;24;20430;-69
2022/03/07 08:22:56;;;;;;;19.30;16.83;;;0.90;99.90;;;;;;5978132;24;20439;-69
2022/03/07 08:25:24;;;;;;;20.57;18.43;;;0.90;99.90;;;;;;5976563;23;20547;-69
2022/03/07 08:27:54;;;;;;;20.73;18.60;;;1.00;99.90;;;;;;5988867;24;20414;-69
2022/03/07 08:30:23;;;;;;;19.30;17.17;;;1.00;99.90;;;;;;5985580;24;20418;-69
2022/03/07 08:32:52;;;;;;;19.93;17.00;;;1.10;99.90;;;;;;5976103;24;20540;-68
2022/03/07 08:35:21;;;;;;;22.40;18.97;;;1.20;99.90;;;;;;5967471;23;20946;-68
2022/03/07 08:37:51;;;;;;;18.30;16.40;;;1.30;99.90;;;;;;5975842;24;20430;-68
2022/03/07 08:40:20;;;;;;;17.33;15.50;;;1.40;99.90;;;;;;5978231;24;20419;-68
2022/03/07 08:42:48;;;;;;;18.63;14.50;;;1.50;99.90;;;;;;5987294;24;20457;-68
2022/03/07 08:45:22;;;;;;;16.20;14.40;;;1.60;99.90;;;;;;5978129;23;20711;-68
2022/03/07 08:48:10;;;;;;;17.30;14.73;;;1.70;99.90;;;;;;5986700;24;20428;-68
2022/03/07 08:50:37;;;;;;;15.77;14.07;;;1.80;99.90;;;;;;5986004;24;20430;-69
2022/03/07 08:53:05;;;;;;;17.63;14.77;;;1.90;99.90;;;;;;5973634;24;20562;-69
2022/03/07 08:55:33;;;;;;;16.93;14.43;;;2.00;99.90;;;;;;5973908;23;20449;-68
2022/03/07 08:58:01;;;;;;;17.13;15.20;;;2.10;99.90;;;;;;5986446;24;20426;-68
2022/03/07 09:00:30;;;;;;;16.47;14.77;;;2.10;99.90;;;;;;5984610;24;20422;-67
2022/03/07 09:03:00;;;;;;;16.37;14.63;;;2.20;99.90;;;;;;5983876;24;20434;-68
2022/03/07 09:05:28;;;;;;;16.70;15.03;;;2.30;99.90;;;;;;5978115;23;20557;-68
2022/03/07 09:07:56;;;;;;;20.50;15.00;;;2.30;99.90;;;;;;5986628;24;20445;-68
2022/03/07 09:10:24;;;;;;;17.20;14.73;;;2.50;99.90;;;;;;5985911;24;20454;-68
2022/03/07 09:12:54;;;;;;;16.70;14.33;;;2.60;99.90;;;;;;5979914;24;20981;-67
2022/03/07 09:15:22;;;;;;;19.10;13.83;;;2.70;99.90;;;;;;5977012;23;20473;-67
2022/03/07 09:17:51;;;;;;;15.37;13.77;;;2.80;99.90;;;;;;5986653;24;20422;-68
2022/03/07 09:20:19;;;;;;;17.50;13.50;;;2.90;99.90;;;;;;5983999;24;20426;-68
2022/03/07 09:22:47;;;;;;;15.93;13.10;;;3.00;99.90;;;;;;5983760;24;20438;-68
2022/03/07 09:25:16;;;;;;;42.73;28.37;;;3.10;99.90;;;;;;5978362;23;20553;-68
2022/03/07 09:27:44;;;;;;;18.80;14.33;;;3.20;99.90;;;;;;5961469;24;20425;-69
2022/03/07 09:30:14;;;;;;;11.53;10.33;;;3.30;99.90;;;;;;5985036;24;20419;-69
2022/03/07 09:32:42;;;;;;;9.30;8.30;;;3.50;99.90;;;;;;5976373;24;20442;-69
2022/03/07 09:35:12;;;;;;;11.10;7.90;;;3.60;99.90;;;;;;5950522;24;20478;-69
2022/03/07 09:37:40;;;;;;;9.90;8.40;;;3.80;99.90;;;;;;5984148;24;20526;-69
2022/03/07 09:40:09;;;;;;;7.03;5.43;;;4.00;99.90;;;;;;5985343;24;20419;-69
2022/03/07 09:42:37;;;;;;;5.27;4.77;;;4.10;99.90;;;;;;5983409;24;20438;-69
2022/03/07 09:45:12;;;;;;;4.87;4.20;;;4.30;99.90;;;;;;5978124;23;20464;-69
2022/03/07 09:47:43;;;;;;;6.10;4.27;;;4.40;99.90;;;;;;5985603;24;20425;-69
2022/03/07 09:50:12;;;;;;;3.70;3.40;;;4.60;99.90;;;;;;5978446;24;20431;-69
2022/03/07 09:52:43;;;;;;;6.13;4.00;;;4.70;99.90;;;;;;5985544;24;20494;-69
2022/03/07 09:55:13;;;;;;;3.67;3.37;;;4.80;99.90;;;;;;5975996;23;20454;-69
2022/03/07 09:57:42;;;;;;;3.90;3.50;;;4.90;99.90;;;;;;5983718;24;20419;-69
2022/03/07 10:00:11;;;;;;;6.60;3.47;;;5.00;99.90;;;;;;5983195;24;20425;-69
2022/03/07 10:02:39;;;;;;;4.00;3.60;;;5.10;99.90;;;;;;5974172;24;20454;-69
2022/03/07 10:05:08;;;;;;;4.03;2.90;;;5.20;99.90;;;;;;5977571;23;20514;-69
2022/03/07 10:07:46;;;;;;;3.47;3.17;;;5.30;99.90;;;;;;5979780;24;20462;-68
2022/03/07 10:10:14;;;;;;;3.00;2.80;;;5.40;99.90;;;;;;5985042;24;20414;-69
2022/03/07 10:12:47;;;;;;;3.50;2.97;;;5.50;99.90;;;;;;5973798;24;20450;-69
2022/03/07 10:15:17;;;;;;;3.83;3.43;;;5.70;99.90;;;;;;5977293;23;20453;-69
2022/03/07 10:17:49;;;;;;;3.50;3.20;;;5.70;99.90;;;;;;5981628;24;20422;-69
2022/03/07 10:20:19;;;;;;;2.70;2.50;;;5.80;99.90;;;;;;5982823;24;20494;-69
2022/03/07 10:22:50;;;;;;;3.70;3.40;;;5.90;99.90;;;;;;5974650;24;20831;-69
2022/03/07 10:25:23;;;;;;;2.60;2.40;;;6.00;99.90;;;;;;5976249;23;20438;-69
2022/03/07 10:27:52;;;;;;;2.90;2.60;;;6.20;99.90;;;;;;5984995;24;20453;-69
2022/03/07 10:30:23;;;;;;;2.90;2.70;;;6.30;99.90;;;;;;5971806;24;20422;-69
2022/03/07 10:32:54;;;;;;;3.00;2.73;;;6.30;99.90;;;;;;5981969;24;20446;-69
2022/03/07 10:35:24;;;;;;;3.20;2.87;;;6.40;99.90;;;;;;5974620;23;20450;-67
2022/03/07 10:37:57;;;;;;;3.97;3.23;;;6.50;99.90;;;;;;5984402;24;20466;-68
2022/03/07 10:40:25;;;;;;;3.77;3.13;;;6.60;99.90;;;;;;5982797;24;20425;-68
2022/03/07 10:42:54;;;;;;;3.87;3.50;;;6.70;99.90;;;;;;5973382;24;20478;-68
2022/03/07 10:45:24;;;;;;;3.70;3.40;;;6.80;99.90;;;;;;5971751;23;20505;-67
2022/03/07 10:47:55;;;;;;;3.90;3.50;;;6.90;99.90;;;;;;5983332;24;20415;-68
2022/03/07 10:50:23;;;;;;;3.03;2.80;;;7.00;99.90;;;;;;5984560;24;20426;-68
2022/03/07 10:52:58;;;;;;;3.17;2.80;;;7.10;99.90;;;;;;5980552;24;20434;-67
2022/03/07 10:55:28;;;;;;;3.40;3.10;;;7.20;99.90;;;;;;5972423;23;20464;-68
2022/03/07 10:58:06;;;;;;;3.13;2.83;;;7.30;99.90;;;;;;5984636;24;20414;-68
2022/03/07 11:00:35;;;;;;;2.90;2.60;;;7.40;99.90;;;;;;5982798;24;20988;-67
2022/03/07 11:03:03;;;;;;;3.30;3.00;;;7.50;99.90;;;;;;5983684;24;20531;-66
2022/03/07 11:05:31;;;;;;;2.90;2.70;;;7.60;99.90;;;;;;5973422;23;20479;-67
2022/03/07 11:08:00;;;;;;;2.80;2.53;;;7.70;99.90;;;;;;5982805;24;20446;-68
2022/03/07 11:10:28;;;;;;;6.80;2.97;;;7.80;99.90;;;;;;5982132;24;20421;-67
2022/03/07 11:12:56;;;;;;;3.23;2.93;;;7.90;99.90;;;;;;5978638;24;20434;-66
2022/03/07 11:15:27;;;;;;;2.20;2.10;;;8.10;99.90;;;;;;5971231;23;20446;-68
2022/03/07 11:17:55;;;;;;;2.40;2.20;;;8.20;99.90;;;;;;5983206;24;20417;-68
2022/03/07 11:20:24;;;;;;;2.80;2.60;;;8.20;99.90;;;;;;5983205;24;20429;-68
2022/03/07 11:22:52;;;;;;;3.17;2.87;;;8.30;99.90;;;;;;5978111;24;20442;-69
2022/03/07 11:25:21;;;;;;;3.93;3.63;;;8.40;99.90;;;;;;5975111;23;20450;-68
2022/03/07 11:27:49;;;;;;;4.70;3.60;;;8.50;99.90;;;;;;5986186;24;20481;-68
2022/03/07 11:30:19;;;;;;;4.17;3.77;;;8.60;99.90;;;;;;5986236;24;20441;-68
2022/03/07 11:32:49;;;;;;;3.33;3.03;;;8.70;99.90;;;;;;5982655;24;20430;-69
2022/03/07 11:35:17;;;;;;;2.80;2.60;;;8.80;99.90;;;;;;5974412;23;20449;-68
2022/03/07 11:37:46;;;;;;;2.60;2.40;;;8.90;99.90;;;;;;5985368;24;20425;-68
2022/03/07 11:40:20;;;;;;;4.30;2.20;;;9.00;99.90;;;;;;5977471;24;20928;-68
2022/03/07 11:42:49;;;;;;;1.40;1.30;;;9.10;99.90;;;;;;5986871;24;20433;-68
2022/03/07 11:45:21;;;;;;;1.80;1.40;;;9.30;99.90;;;;;;5951809;23;20988;-69
2022/03/07 11:47:50;;;;;;;2.10;1.50;;;9.30;99.90;;;;;;5986238;24;20521;-68
2022/03/07 11:50:22;;;;;;;2.00;1.50;;;9.50;99.90;;;;;;5985089;24;20419;-69
2022/03/07 11:52:50;;;;;;;1.50;1.40;;;9.60;99.90;;;;;;5986289;24;20438;-69
2022/03/07 11:55:20;;;;;;;1.67;1.57;;;9.70;99.90;;;;;;5975027;23;20450;-68
2022/03/07 11:58:00;;;;;;;1.80;1.70;;;9.80;99.90;;;;;;5987288;24;20410;-69
2022/03/07 12:00:32;;;;;;;2.17;1.77;;;10.00;99.90;;;;;;5985483;24;20418;-68
2022/03/07 12:03:09;;;;;;;2.10;1.50;;;10.10;99.90;;;;;;5975894;24;20438;-68
2022/03/07 12:05:38;;;;;;;1.97;1.87;;;10.30;99.90;;;;;;5972085;23;20460;-69
2022/03/07 12:08:14;;;;;;;1.90;1.80;;;10.50;99.90;;;;;;5974864;24;20443;-69
2022/03/07 12:10:53;;;;;;;2.13;1.93;;;10.70;99.90;;;;;;5984107;24;20493;-68
2022/03/07 12:13:29;;;;;;;2.00;1.80;;;10.80;99.90;;;;;;5984169;24;20434;-69
2022/03/07 12:15:58;;;;;;;3.03;1.90;;;11.10;99.90;;;;;;5976543;24;20434;-69
2022/03/07 12:18:29;;;;;;;2.17;1.97;;;11.30;99.90;;;;;;5985876;24;20414;-69
2022/03/07 12:21:00;;;;;;;2.30;2.10;;;11.50;99.90;;;;;;5987639;24;20410;-69
2022/03/07 12:23:31;;;;;;;2.77;2.47;;;11.80;99.90;;;;;;5981586;24;20471;-67
2022/03/07 12:26:02;;;;;;;3.07;2.77;;;12.30;99.90;;;;;;5974760;24;20438;-68
2022/03/07 12:28:34;;;;;;;3.00;2.70;;;12.80;99.90;;;;;;5983944;24;20476;-68
2022/03/07 12:31:03;;;;;;;3.60;2.60;;;13.80;99.90;;;;;;5986856;24;20411;-68
2022/03/07 12:33:32;;;;;;;2.70;2.50;;;14.70;99.60;;;;;;5975228;23;20456;-68
2022/03/07 12:36:25;;;;;;;2.20;2.00;;;15.60;97.60;;;;;;5983399;24;20403;-68
2022/03/07 12:38:55;;;;;;;3.73;2.50;;;17.10;91.60;;;;;;5986013;24;20416;-69
2022/03/07 12:41:29;;;;;;;2.20;2.10;;;18.40;89.00;;;;;;5975341;24;20422;-69
2022/03/07 12:43:59;;;;;;;2.13;2.00;;;20.30;83.60;;;;;;5983578;23;20453;-70